sensor_id;sensor_type;location;lat;lon;timestamp;temperature;humidity
254;DHT22;590;48.772;8.846;2022-10-15T00:00:50;14.90;99.90
254;DHT22;590;48.772;8.846;2022-10-15T00:03:18;14.90;99.90
254;DHT22;590;48.772;8.846;2022-10-15T00:05:48;14.90;99.90
254;DHT22;590;48.772;8.846;2022-10-15T00:08:15;15.00;99.90
254;DHT22;590;48.772;8.846;2022-10-15T00:10:44;15.00;99.90
254;DHT22;590;48.772;8.846;2022-10-15T00:13:11;15.00;99.90
254;DHT22;590;48.772;8.846;2022-10-15T00:15:40;15.00;99.90
254;DHT22;590;48.772;8.846;2022-10-15T00:18:07;15.00;99.90
254;DHT22;590;48.772;8.846;2022-10-15T00:20:35;15.00;99.90
254;DHT22;590;48.772;8.846;2022-10-15T00:23:08;15.00;99.90
254;DHT22;590;48.772;8.846;2022-10-15T00:25:36;15.00;99.90
254;DHT22;590;48.772;8.846;2022-10-15T00:28:07;15.10;99.90
254;DHT22;590;48.772;8.846;2022-10-15T00:30:35;15.10;99.90
254;DHT22;590;48.772;8.846;2022-10-15T00:33:03;15.10;99.90
254;DHT22;590;48.772;8.846;2022-10-15T00:35:31;15.10;99.90
254;DHT22;590;48.772;8.846;2022-10-15T00:37:59;15.10;99.90
254;DHT22;590;48.772;8.846;2022-10-15T00:40:29;15.10;99.90
254;DHT22;590;48.772;8.846;2022-10-15T00:42:57;15.10;99.90
254;DHT22;590;48.772;8.846;2022-10-15T00:45:25;15.10;99.90
254;DHT22;590;48.772;8.846;2022-10-15T00:47:53;15.10;99.90
254;DHT22;590;48.772;8.846;2022-10-15T00:50:22;15.10;99.90
254;DHT22;590;48.772;8.846;2022-10-15T00:52:58;15.10;99.90
254;DHT22;590;48.772;8.846;2022-10-15T00:55:31;15.10;99.90
254;DHT22;590;48.772;8.846;2022-10-15T00:58:02;15.10;99.90
254;DHT22;590;48.772;8.846;2022-10-15T01:00:32;15.20;99.90
254;DHT22;590;48.772;8.846;2022-10-15T01:03:00;15.20;99.90
254;DHT22;590;48.772;8.846;2022-10-15T01:05:29;15.20;99.90
254;DHT22;590;48.772;8.846;2022-10-15T01:07:57;15.20;99.90
254;DHT22;590;48.772;8.846;2022-10-15T01:10:31;15.20;99.90
254;DHT22;590;48.772;8.846;2022-10-15T01:13:11;15.20;99.90
254;DHT22;590;48.772;8.846;2022-10-15T01:15:46;15.20;99.90
254;DHT22;590;48.772;8.846;2022-10-15T01:18:20;15.20;99.90
254;DHT22;590;48.772;8.846;2022-10-15T01:21:02;15.20;99.90
254;DHT22;590;48.772;8.846;2022-10-15T01:27:18;15.30;99.90
254;DHT22;590;48.772;8.846;2022-10-15T01:33:09;15.30;99.90
254;DHT22;590;48.772;8.846;2022-10-15T01:35:45;15.30;99.90
254;DHT22;590;48.772;8.846;2022-10-15T01:38:33;15.30;99.90
254;DHT22;590;48.772;8.846;2022-10-15T01:41:08;15.30;99.90
254;DHT22;590;48.772;8.846;2022-10-15T01:43:42;15.30;99.90
254;DHT22;590;48.772;8.846;2022-10-15T01:46:14;15.30;99.90
254;DHT22;590;48.772;8.846;2022-10-15T01:48:45;15.30;99.90
254;DHT22;590;48.772;8.846;2022-10-15T01:51:15;15.40;99.90
254;DHT22;590;48.772;8.846;2022-10-15T01:53:45;15.40;99.90
254;DHT22;590;48.772;8.846;2022-10-15T01:56:18;15.40;99.90
254;DHT22;590;48.772;8.846;2022-10-15T01:58:49;15.40;99.90
254;DHT22;590;48.772;8.846;2022-10-15T02:01:20;15.40;99.90
254;DHT22;590;48.772;8.846;2022-10-15T02:03:51;15.40;99.90
254;DHT22;590;48.772;8.846;2022-10-15T02:06:22;15.40;99.90
254;DHT22;590;48.772;8.846;2022-10-15T02:09:00;15.40;99.90
254;DHT22;590;48.772;8.846;2022-10-15T02:11:32;15.40;99.90
254;DHT22;590;48.772;8.846;2022-10-15T02:14:09;15.50;99.90
254;DHT22;590;48.772;8.846;2022-10-15T02:16:43;15.40;99.90
254;DHT22;590;48.772;8.846;2022-10-15T02:19:20;15.50;99.90
254;DHT22;590;48.772;8.846;2022-10-15T02:21:52;15.50;99.90
254;DHT22;590;48.772;8.846;2022-10-15T02:24:25;15.50;99.90
254;DHT22;590;48.772;8.846;2022-10-15T02:26:56;15.40;99.90
254;DHT22;590;48.772;8.846;2022-10-15T02:29:27;15.50;99.90
254;DHT22;590;48.772;8.846;2022-10-15T02:31:58;15.50;99.90
254;DHT22;590;48.772;8.846;2022-10-15T02:34:29;15.50;99.90
254;DHT22;590;48.772;8.846;2022-10-15T02:37:01;15.50;99.90
254;DHT22;590;48.772;8.846;2022-10-15T02:39:30;15.50;99.90
254;DHT22;590;48.772;8.846;2022-10-15T02:41:58;15.50;99.90
254;DHT22;590;48.772;8.846;2022-10-15T02:44:26;15.60;99.90
254;DHT22;590;48.772;8.846;2022-10-15T02:46:54;15.60;99.90
254;DHT22;590;48.772;8.846;2022-10-15T02:49:23;15.60;99.90
254;DHT22;590;48.772;8.846;2022-10-15T02:51:52;15.60;99.90
254;DHT22;590;48.772;8.846;2022-10-15T02:54:20;15.60;99.90
254;DHT22;590;48.772;8.846;2022-10-15T02:56:48;15.50;99.90
254;DHT22;590;48.772;8.846;2022-10-15T02:59:16;15.60;99.90
254;DHT22;590;48.772;8.846;2022-10-15T03:01:45;15.60;99.90
254;DHT22;590;48.772;8.846;2022-10-15T03:04:13;15.70;99.90
254;DHT22;590;48.772;8.846;2022-10-15T03:06:41;15.70;99.90
254;DHT22;590;48.772;8.846;2022-10-15T03:09:10;15.70;99.90
254;DHT22;590;48.772;8.846;2022-10-15T03:11:39;15.70;99.90
254;DHT22;590;48.772;8.846;2022-10-15T03:14:07;15.70;99.90
254;DHT22;590;48.772;8.846;2022-10-15T03:16:35;15.60;99.90
254;DHT22;590;48.772;8.846;2022-10-15T03:19:03;15.70;99.90
254;DHT22;590;48.772;8.846;2022-10-15T03:21:31;15.70;99.90
254;DHT22;590;48.772;8.846;2022-10-15T03:23:59;15.70;99.90
254;DHT22;590;48.772;8.846;2022-10-15T03:26:29;15.70;99.90
254;DHT22;590;48.772;8.846;2022-10-15T03:28:57;15.70;99.90
254;DHT22;590;48.772;8.846;2022-10-15T03:31:25;15.70;99.90
254;DHT22;590;48.772;8.846;2022-10-15T03:33:53;15.70;99.90
254;DHT22;590;48.772;8.846;2022-10-15T03:36:21;15.70;99.90
254;DHT22;590;48.772;8.846;2022-10-15T03:38:49;15.70;99.90
254;DHT22;590;48.772;8.846;2022-10-15T03:41:17;15.70;99.90
254;DHT22;590;48.772;8.846;2022-10-15T03:43:46;15.70;99.90
254;DHT22;590;48.772;8.846;2022-10-15T03:46:14;15.70;99.90
254;DHT22;590;48.772;8.846;2022-10-15T03:48:42;15.70;99.90
254;DHT22;590;48.772;8.846;2022-10-15T03:51:10;15.70;99.90
254;DHT22;590;48.772;8.846;2022-10-15T03:53:44;15.70;99.90
254;DHT22;590;48.772;8.846;2022-10-15T03:56:12;15.70;99.90
254;DHT22;590;48.772;8.846;2022-10-15T03:58:40;15.70;99.90
254;DHT22;590;48.772;8.846;2022-10-15T04:01:10;15.70;99.90
254;DHT22;590;48.772;8.846;2022-10-15T04:03:38;15.70;99.90
254;DHT22;590;48.772;8.846;2022-10-15T04:06:06;15.70;99.90
254;DHT22;590;48.772;8.846;2022-10-15T04:08:35;15.70;99.90
254;DHT22;590;48.772;8.846;2022-10-15T04:11:03;15.70;99.90
254;DHT22;590;48.772;8.846;2022-10-15T04:13:30;15.70;99.90
254;DHT22;590;48.772;8.846;2022-10-15T04:15:58;15.70;99.90
254;DHT22;590;48.772;8.846;2022-10-15T04:18:28;15.70;99.90
254;DHT22;590;48.772;8.846;2022-10-15T04:20:57;15.70;99.90
254;DHT22;590;48.772;8.846;2022-10-15T04:23:25;15.70;99.90
254;DHT22;590;48.772;8.846;2022-10-15T04:25:53;15.70;99.90
254;DHT22;590;48.772;8.846;2022-10-15T04:28:25;15.70;99.90
254;DHT22;590;48.772;8.846;2022-10-15T04:30:55;15.70;99.90
254;DHT22;590;48.772;8.846;2022-10-15T04:33:23;15.70;99.90
254;DHT22;590;48.772;8.846;2022-10-15T04:35:59;15.70;99.90
254;DHT22;590;48.772;8.846;2022-10-15T04:38:27;15.70;99.90
254;DHT22;590;48.772;8.846;2022-10-15T04:40:59;15.60;99.90
254;DHT22;590;48.772;8.846;2022-10-15T04:43:28;15.70;99.90
254;DHT22;590;48.772;8.846;2022-10-15T04:45:57;15.70;99.90
254;DHT22;590;48.772;8.846;2022-10-15T04:48:27;15.60;99.90
254;DHT22;590;48.772;8.846;2022-10-15T04:51:02;15.60;99.90
254;DHT22;590;48.772;8.846;2022-10-15T04:53:30;15.70;99.90
254;DHT22;590;48.772;8.846;2022-10-15T04:56:00;15.70;99.90
254;DHT22;590;48.772;8.846;2022-10-15T04:58:29;15.60;99.90
254;DHT22;590;48.772;8.846;2022-10-15T05:01:00;15.70;99.90
254;DHT22;590;48.772;8.846;2022-10-15T05:03:29;15.70;99.90
254;DHT22;590;48.772;8.846;2022-10-15T05:06:05;15.70;99.90
254;DHT22;590;48.772;8.846;2022-10-15T05:08:34;15.60;99.90
254;DHT22;590;48.772;8.846;2022-10-15T05:11:04;15.70;99.90
254;DHT22;590;48.772;8.846;2022-10-15T05:13:33;15.60;99.90
254;DHT22;590;48.772;8.846;2022-10-15T05:16:08;15.60;99.90
254;DHT22;590;48.772;8.846;2022-10-15T05:18:36;15.60;99.90
254;DHT22;590;48.772;8.846;2022-10-15T05:21:07;15.60;99.90
254;DHT22;590;48.772;8.846;2022-10-15T05:23:35;15.60;99.90
254;DHT22;590;48.772;8.846;2022-10-15T05:26:05;15.60;99.90
254;DHT22;590;48.772;8.846;2022-10-15T05:28:33;15.60;99.90
254;DHT22;590;48.772;8.846;2022-10-15T05:31:06;15.60;99.90
254;DHT22;590;48.772;8.846;2022-10-15T05:33:34;15.60;99.90
254;DHT22;590;48.772;8.846;2022-10-15T05:36:14;15.60;99.90
254;DHT22;590;48.772;8.846;2022-10-15T05:38:43;15.60;99.90
254;DHT22;590;48.772;8.846;2022-10-15T05:41:12;15.50;99.90
254;DHT22;590;48.772;8.846;2022-10-15T05:43:40;15.60;99.90
254;DHT22;590;48.772;8.846;2022-10-15T05:46:08;15.60;99.90
254;DHT22;590;48.772;8.846;2022-10-15T05:48:36;15.60;99.90
254;DHT22;590;48.772;8.846;2022-10-15T05:51:06;15.60;99.90
254;DHT22;590;48.772;8.846;2022-10-15T05:53:36;15.60;99.90
254;DHT22;590;48.772;8.846;2022-10-15T05:56:04;15.50;99.90
254;DHT22;590;48.772;8.846;2022-10-15T05:58:34;15.50;99.90
254;DHT22;590;48.772;8.846;2022-10-15T06:01:05;15.50;99.90
254;DHT22;590;48.772;8.846;2022-10-15T06:03:33;15.50;99.90
254;DHT22;590;48.772;8.846;2022-10-15T06:06:01;15.50;99.90
254;DHT22;590;48.772;8.846;2022-10-15T06:08:30;15.50;99.90
254;DHT22;590;48.772;8.846;2022-10-15T06:11:03;15.50;99.90
254;DHT22;590;48.772;8.846;2022-10-15T06:13:37;15.50;99.90
254;DHT22;590;48.772;8.846;2022-10-15T06:16:05;15.50;99.90
254;DHT22;590;48.772;8.846;2022-10-15T06:18:33;15.50;99.90
254;DHT22;590;48.772;8.846;2022-10-15T06:21:01;15.50;99.90
254;DHT22;590;48.772;8.846;2022-10-15T06:23:29;15.50;99.90
254;DHT22;590;48.772;8.846;2022-10-15T06:26:02;15.50;99.90
254;DHT22;590;48.772;8.846;2022-10-15T06:28:30;15.50;99.90
254;DHT22;590;48.772;8.846;2022-10-15T06:30:59;15.50;99.90
254;DHT22;590;48.772;8.846;2022-10-15T06:33:27;15.50;99.90
254;DHT22;590;48.772;8.846;2022-10-15T06:36:00;15.60;99.90
254;DHT22;590;48.772;8.846;2022-10-15T06:38:29;15.60;99.90
254;DHT22;590;48.772;8.846;2022-10-15T06:40:57;15.60;99.90
254;DHT22;590;48.772;8.846;2022-10-15T06:43:26;15.60;99.90
254;DHT22;590;48.772;8.846;2022-10-15T06:45:58;15.70;99.90
254;DHT22;590;48.772;8.846;2022-10-15T06:48:26;15.70;99.90
254;DHT22;590;48.772;8.846;2022-10-15T06:50:57;15.70;99.90
254;DHT22;590;48.772;8.846;2022-10-15T06:53:26;15.80;99.90
254;DHT22;590;48.772;8.846;2022-10-15T06:55:55;15.80;99.90
254;DHT22;590;48.772;8.846;2022-10-15T06:58:23;15.80;99.90
254;DHT22;590;48.772;8.846;2022-10-15T07:00:58;15.80;99.90
254;DHT22;590;48.772;8.846;2022-10-15T07:03:27;15.90;99.90
254;DHT22;590;48.772;8.846;2022-10-15T07:05:58;15.90;99.90
254;DHT22;590;48.772;8.846;2022-10-15T07:08:27;15.90;99.90
254;DHT22;590;48.772;8.846;2022-10-15T07:10:55;15.90;99.90
254;DHT22;590;48.772;8.846;2022-10-15T07:13:23;16.00;99.90
254;DHT22;590;48.772;8.846;2022-10-15T07:15:53;16.00;99.90
254;DHT22;590;48.772;8.846;2022-10-15T07:18:22;16.00;99.90
254;DHT22;590;48.772;8.846;2022-10-15T07:20:50;16.10;99.90
254;DHT22;590;48.772;8.846;2022-10-15T07:23:17;16.10;99.90
254;DHT22;590;48.772;8.846;2022-10-15T07:25:52;16.10;99.90
254;DHT22;590;48.772;8.846;2022-10-15T07:28:21;16.20;99.90
254;DHT22;590;48.772;8.846;2022-10-15T07:30:50;16.30;99.90
254;DHT22;590;48.772;8.846;2022-10-15T07:33:19;16.30;99.90
254;DHT22;590;48.772;8.846;2022-10-15T07:35:47;16.40;99.90
254;DHT22;590;48.772;8.846;2022-10-15T07:38:15;16.40;99.90
254;DHT22;590;48.772;8.846;2022-10-15T07:40:43;16.40;99.90
254;DHT22;590;48.772;8.846;2022-10-15T07:43:11;16.40;99.90
254;DHT22;590;48.772;8.846;2022-10-15T07:45:39;16.40;99.90
254;DHT22;590;48.772;8.846;2022-10-15T07:48:07;16.50;99.90
254;DHT22;590;48.772;8.846;2022-10-15T07:50:37;16.50;99.90
254;DHT22;590;48.772;8.846;2022-10-15T07:53:08;16.50;99.90
254;DHT22;590;48.772;8.846;2022-10-15T07:55:36;16.50;99.90
254;DHT22;590;48.772;8.846;2022-10-15T07:58:04;16.50;99.90
254;DHT22;590;48.772;8.846;2022-10-15T08:00:34;16.50;99.90
254;DHT22;590;48.772;8.846;2022-10-15T08:03:02;16.50;99.90
254;DHT22;590;48.772;8.846;2022-10-15T08:05:30;16.60;99.90
254;DHT22;590;48.772;8.846;2022-10-15T08:07:59;16.60;99.90
254;DHT22;590;48.772;8.846;2022-10-15T08:10:27;16.70;99.90
254;DHT22;590;48.772;8.846;2022-10-15T08:12:55;16.70;99.90
254;DHT22;590;48.772;8.846;2022-10-15T08:15:23;16.80;99.90
254;DHT22;590;48.772;8.846;2022-10-15T08:17:51;16.90;99.90
254;DHT22;590;48.772;8.846;2022-10-15T08:20:19;17.00;99.90
254;DHT22;590;48.772;8.846;2022-10-15T08:22:47;17.10;99.90
254;DHT22;590;48.772;8.846;2022-10-15T08:25:17;17.20;99.90
254;DHT22;590;48.772;8.846;2022-10-15T08:27:45;17.30;99.90
254;DHT22;590;48.772;8.846;2022-10-15T08:30:13;17.40;99.90
254;DHT22;590;48.772;8.846;2022-10-15T08:32:41;17.50;99.90
254;DHT22;590;48.772;8.846;2022-10-15T08:35:09;17.50;99.90
254;DHT22;590;48.772;8.846;2022-10-15T08:37:37;17.60;99.90
254;DHT22;590;48.772;8.846;2022-10-15T08:40:05;17.70;99.90
254;DHT22;590;48.772;8.846;2022-10-15T08:42:38;17.70;99.90
254;DHT22;590;48.772;8.846;2022-10-15T08:45:12;17.70;99.90
254;DHT22;590;48.772;8.846;2022-10-15T08:47:44;17.70;99.90
254;DHT22;590;48.772;8.846;2022-10-15T08:50:19;17.80;99.90
254;DHT22;590;48.772;8.846;2022-10-15T08:52:52;17.80;99.90
254;DHT22;590;48.772;8.846;2022-10-15T08:55:22;17.80;99.90
254;DHT22;590;48.772;8.846;2022-10-15T08:57:59;17.70;99.90
254;DHT22;590;48.772;8.846;2022-10-15T09:00:31;17.70;99.90
254;DHT22;590;48.772;8.846;2022-10-15T09:03:04;17.70;99.90
254;DHT22;590;48.772;8.846;2022-10-15T09:05:43;17.70;99.90
254;DHT22;590;48.772;8.846;2022-10-15T09:08:19;17.60;99.90
254;DHT22;590;48.772;8.846;2022-10-15T09:10:51;17.60;99.90
254;DHT22;590;48.772;8.846;2022-10-15T09:13:25;17.60;99.90
254;DHT22;590;48.772;8.846;2022-10-15T09:15:57;17.60;99.90
254;DHT22;590;48.772;8.846;2022-10-15T09:18:29;17.50;99.90
254;DHT22;590;48.772;8.846;2022-10-15T09:20:59;17.50;99.90
254;DHT22;590;48.772;8.846;2022-10-15T09:23:28;17.60;99.90
254;DHT22;590;48.772;8.846;2022-10-15T09:26:00;17.70;99.90
254;DHT22;590;48.772;8.846;2022-10-15T09:28:37;17.80;99.90
254;DHT22;590;48.772;8.846;2022-10-15T09:31:09;18.00;99.90
254;DHT22;590;48.772;8.846;2022-10-15T09:33:44;18.20;99.90
254;DHT22;590;48.772;8.846;2022-10-15T09:36:26;18.50;99.90
254;DHT22;590;48.772;8.846;2022-10-15T09:39:04;18.80;99.90
254;DHT22;590;48.772;8.846;2022-10-15T09:41:46;19.10;99.90
254;DHT22;590;48.772;8.846;2022-10-15T09:44:22;19.40;99.90
254;DHT22;590;48.772;8.846;2022-10-15T09:46:51;19.70;99.90
254;DHT22;590;48.772;8.846;2022-10-15T09:49:22;19.90;99.90
254;DHT22;590;48.772;8.846;2022-10-15T09:51:56;20.20;99.90
254;DHT22;590;48.772;8.846;2022-10-15T09:54:31;20.50;99.90
254;DHT22;590;48.772;8.846;2022-10-15T09:57:02;20.70;99.90
254;DHT22;590;48.772;8.846;2022-10-15T09:59:31;20.80;99.90
254;DHT22;590;48.772;8.846;2022-10-15T10:02:01;20.90;99.90
254;DHT22;590;48.772;8.846;2022-10-15T10:04:31;21.00;99.90
254;DHT22;590;48.772;8.846;2022-10-15T10:07:01;21.10;99.90
254;DHT22;590;48.772;8.846;2022-10-15T10:09:31;21.10;99.90
254;DHT22;590;48.772;8.846;2022-10-15T10:12:02;21.20;99.90
254;DHT22;590;48.772;8.846;2022-10-15T10:14:54;21.30;99.90
254;DHT22;590;48.772;8.846;2022-10-15T10:17:24;21.50;99.90
254;DHT22;590;48.772;8.846;2022-10-15T10:20:11;21.50;99.90
254;DHT22;590;48.772;8.846;2022-10-15T10:22:42;21.60;99.90
254;DHT22;590;48.772;8.846;2022-10-15T10:25:28;21.70;99.90
254;DHT22;590;48.772;8.846;2022-10-15T10:27:58;21.70;99.90
254;DHT22;590;48.772;8.846;2022-10-15T10:30:34;21.70;99.30
254;DHT22;590;48.772;8.846;2022-10-15T10:33:03;21.80;98.30
254;DHT22;590;48.772;8.846;2022-10-15T10:35:43;21.90;98.70
254;DHT22;590;48.772;8.846;2022-10-15T10:38:21;22.10;98.50
254;DHT22;590;48.772;8.846;2022-10-15T10:40:50;22.20;94.30
254;DHT22;590;48.772;8.846;2022-10-15T10:43:23;22.10;91.60
254;DHT22;590;48.772;8.846;2022-10-15T10:45:54;22.00;91.30
254;DHT22;590;48.772;8.846;2022-10-15T10:48:24;21.90;90.10
254;DHT22;590;48.772;8.846;2022-10-15T10:51:05;21.80;90.80
254;DHT22;590;48.772;8.846;2022-10-15T10:53:43;21.70;91.00
254;DHT22;590;48.772;8.846;2022-10-15T10:56:16;21.60;92.10
254;DHT22;590;48.772;8.846;2022-10-15T10:58:47;21.60;91.70
254;DHT22;590;48.772;8.846;2022-10-15T11:01:20;21.50;91.00
254;DHT22;590;48.772;8.846;2022-10-15T11:03:48;21.40;91.40
254;DHT22;590;48.772;8.846;2022-10-15T11:09:31;21.30;90.90
254;DHT22;590;48.772;8.846;2022-10-15T11:12:13;21.20;91.10
254;DHT22;590;48.772;8.846;2022-10-15T11:14:50;21.20;91.20
254;DHT22;590;48.772;8.846;2022-10-15T11:17:31;21.20;92.30
254;DHT22;590;48.772;8.846;2022-10-15T11:20:04;21.30;90.90
254;DHT22;590;48.772;8.846;2022-10-15T11:23:03;21.40;90.60
254;DHT22;590;48.772;8.846;2022-10-15T11:25:40;21.40;89.50
254;DHT22;590;48.772;8.846;2022-10-15T11:28:26;21.50;88.90
254;DHT22;590;48.772;8.846;2022-10-15T11:31:02;21.70;88.70
254;DHT22;590;48.772;8.846;2022-10-15T11:34:00;21.90;88.80
254;DHT22;590;48.772;8.846;2022-10-15T11:36:41;22.20;84.10
254;DHT22;590;48.772;8.846;2022-10-15T11:39:20;22.40;82.90
254;DHT22;590;48.772;8.846;2022-10-15T11:42:00;22.50;79.50
254;DHT22;590;48.772;8.846;2022-10-15T11:44:38;22.60;78.20
254;DHT22;590;48.772;8.846;2022-10-15T11:47:21;22.50;73.80
254;DHT22;590;48.772;8.846;2022-10-15T11:50:11;22.30;71.80
254;DHT22;590;48.772;8.846;2022-10-15T11:53:02;22.20;74.30
254;DHT22;590;48.772;8.846;2022-10-15T11:55:37;22.00;75.40
254;DHT22;590;48.772;8.846;2022-10-15T11:58:12;21.70;76.40
254;DHT22;590;48.772;8.846;2022-10-15T12:00:44;21.50;75.40
254;DHT22;590;48.772;8.846;2022-10-15T12:03:20;21.30;76.40
254;DHT22;590;48.772;8.846;2022-10-15T12:05:54;21.00;79.00
254;DHT22;590;48.772;8.846;2022-10-15T12:09:25;20.80;82.10
254;DHT22;590;48.772;8.846;2022-10-15T12:12:48;20.70;82.50
254;DHT22;590;48.772;8.846;2022-10-15T12:15:25;20.60;84.90
254;DHT22;590;48.772;8.846;2022-10-15T12:18:00;20.50;84.60
254;DHT22;590;48.772;8.846;2022-10-15T12:20:30;20.40;85.10
254;DHT22;590;48.772;8.846;2022-10-15T12:23:04;20.30;86.10
254;DHT22;590;48.772;8.846;2022-10-15T12:25:57;20.20;85.90
254;DHT22;590;48.772;8.846;2022-10-15T12:28:47;20.00;87.80
254;DHT22;590;48.772;8.846;2022-10-15T12:35:35;19.80;91.20
254;DHT22;590;48.772;8.846;2022-10-15T12:38:29;19.60;91.30
254;DHT22;590;48.772;8.846;2022-10-15T12:41:02;19.50;92.60
254;DHT22;590;48.772;8.846;2022-10-15T12:43:37;19.40;91.90
254;DHT22;590;48.772;8.846;2022-10-15T12:46:09;19.30;92.10
254;DHT22;590;48.772;8.846;2022-10-15T12:48:42;19.30;91.80
254;DHT22;590;48.772;8.846;2022-10-15T12:51:38;19.20;91.60
254;DHT22;590;48.772;8.846;2022-10-15T12:54:32;19.10;91.80
254;DHT22;590;48.772;8.846;2022-10-15T12:57:02;19.00;92.30
254;DHT22;590;48.772;8.846;2022-10-15T12:59:53;18.90;93.00
254;DHT22;590;48.772;8.846;2022-10-15T13:02:36;18.80;94.20
254;DHT22;590;48.772;8.846;2022-10-15T13:05:06;18.80;95.90
254;DHT22;590;48.772;8.846;2022-10-15T13:07:37;18.70;96.70
254;DHT22;590;48.772;8.846;2022-10-15T13:10:18;18.70;98.80
254;DHT22;590;48.772;8.846;2022-10-15T13:12:51;18.80;99.90
254;DHT22;590;48.772;8.846;2022-10-15T13:15:21;18.70;99.90
254;DHT22;590;48.772;8.846;2022-10-15T13:17:52;18.70;99.90
254;DHT22;590;48.772;8.846;2022-10-15T13:20:29;18.70;99.90
254;DHT22;590;48.772;8.846;2022-10-15T13:23:13;18.60;99.90
254;DHT22;590;48.772;8.846;2022-10-15T13:26:16;18.60;99.90
254;DHT22;590;48.772;8.846;2022-10-15T13:28:48;18.60;99.90
254;DHT22;590;48.772;8.846;2022-10-15T13:31:20;18.50;99.90
254;DHT22;590;48.772;8.846;2022-10-15T13:34:01;18.50;99.90
254;DHT22;590;48.772;8.846;2022-10-15T13:36:33;18.40;99.90
254;DHT22;590;48.772;8.846;2022-10-15T13:39:05;18.40;99.90
254;DHT22;590;48.772;8.846;2022-10-15T13:41:35;18.40;99.90
254;DHT22;590;48.772;8.846;2022-10-15T13:44:03;18.40;99.90
254;DHT22;590;48.772;8.846;2022-10-15T13:46:35;18.30;99.90
254;DHT22;590;48.772;8.846;2022-10-15T13:49:11;18.30;99.90
254;DHT22;590;48.772;8.846;2022-10-15T13:51:41;18.20;99.90
254;DHT22;590;48.772;8.846;2022-10-15T13:54:14;18.20;99.90
254;DHT22;590;48.772;8.846;2022-10-15T13:56:47;18.20;99.90
254;DHT22;590;48.772;8.846;2022-10-15T13:59:18;18.20;99.90
254;DHT22;590;48.772;8.846;2022-10-15T14:01:58;18.10;99.90
254;DHT22;590;48.772;8.846;2022-10-15T14:04:30;18.10;99.90
254;DHT22;590;48.772;8.846;2022-10-15T14:07:17;18.10;99.90
254;DHT22;590;48.772;8.846;2022-10-15T14:09:49;18.10;99.90
254;DHT22;590;48.772;8.846;2022-10-15T14:12:17;18.10;99.90
254;DHT22;590;48.772;8.846;2022-10-15T14:14:46;18.10;99.90
254;DHT22;590;48.772;8.846;2022-10-15T14:17:22;18.10;99.90
254;DHT22;590;48.772;8.846;2022-10-15T14:19:55;18.10;99.90
254;DHT22;590;48.772;8.846;2022-10-15T14:22:47;18.10;99.90
254;DHT22;590;48.772;8.846;2022-10-15T14:25:19;18.10;99.90
254;DHT22;590;48.772;8.846;2022-10-15T14:27:48;18.00;99.90
254;DHT22;590;48.772;8.846;2022-10-15T14:30:21;18.10;99.90
254;DHT22;590;48.772;8.846;2022-10-15T14:32:53;18.10;99.90
254;DHT22;590;48.772;8.846;2022-10-15T14:35:35;18.10;99.90
254;DHT22;590;48.772;8.846;2022-10-15T14:38:28;18.20;99.90
254;DHT22;590;48.772;8.846;2022-10-15T14:40:57;18.30;99.90
254;DHT22;590;48.772;8.846;2022-10-15T14:43:35;18.40;99.90
254;DHT22;590;48.772;8.846;2022-10-15T14:46:04;18.40;99.90
254;DHT22;590;48.772;8.846;2022-10-15T14:48:55;18.50;99.90
254;DHT22;590;48.772;8.846;2022-10-15T14:51:26;18.60;99.90
254;DHT22;590;48.772;8.846;2022-10-15T14:53:58;18.70;99.90
254;DHT22;590;48.772;8.846;2022-10-15T14:56:33;18.70;99.90
254;DHT22;590;48.772;8.846;2022-10-15T14:59:05;18.80;99.90
254;DHT22;590;48.772;8.846;2022-10-15T15:01:34;18.80;99.90
254;DHT22;590;48.772;8.846;2022-10-15T15:04:02;18.80;99.90
254;DHT22;590;48.772;8.846;2022-10-15T15:06:32;18.90;99.90
254;DHT22;590;48.772;8.846;2022-10-15T15:09:00;18.90;99.90
254;DHT22;590;48.772;8.846;2022-10-15T15:11:28;18.90;99.90
254;DHT22;590;48.772;8.846;2022-10-15T15:13:56;18.90;99.90
254;DHT22;590;48.772;8.846;2022-10-15T15:16:24;18.90;99.90
254;DHT22;590;48.772;8.846;2022-10-15T15:18:51;18.80;99.90
254;DHT22;590;48.772;8.846;2022-10-15T15:21:21;18.80;99.90
254;DHT22;590;48.772;8.846;2022-10-15T15:23:51;18.80;99.90
254;DHT22;590;48.772;8.846;2022-10-15T15:26:19;18.80;99.90
254;DHT22;590;48.772;8.846;2022-10-15T15:28:47;18.80;99.90
254;DHT22;590;48.772;8.846;2022-10-15T15:31:17;18.80;99.90
254;DHT22;590;48.772;8.846;2022-10-15T15:33:45;18.80;99.90
254;DHT22;590;48.772;8.846;2022-10-15T15:36:17;18.80;99.90
254;DHT22;590;48.772;8.846;2022-10-15T15:38:59;18.80;99.90
254;DHT22;590;48.772;8.846;2022-10-15T15:41:27;18.70;99.90
254;DHT22;590;48.772;8.846;2022-10-15T15:43:55;18.60;99.90
254;DHT22;590;48.772;8.846;2022-10-15T15:46:23;18.60;99.90
254;DHT22;590;48.772;8.846;2022-10-15T15:48:51;18.50;99.90
254;DHT22;590;48.772;8.846;2022-10-15T15:51:21;18.40;99.90
254;DHT22;590;48.772;8.846;2022-10-15T15:53:50;18.40;99.90
254;DHT22;590;48.772;8.846;2022-10-15T15:56:20;18.30;99.90
254;DHT22;590;48.772;8.846;2022-10-15T15:58:48;18.20;99.90
254;DHT22;590;48.772;8.846;2022-10-15T16:01:16;18.20;99.90
254;DHT22;590;48.772;8.846;2022-10-15T16:03:44;18.10;99.90
254;DHT22;590;48.772;8.846;2022-10-15T16:06:12;18.10;99.90
254;DHT22;590;48.772;8.846;2022-10-15T16:08:40;18.00;99.90
254;DHT22;590;48.772;8.846;2022-10-15T16:11:08;18.00;99.90
254;DHT22;590;48.772;8.846;2022-10-15T16:13:37;17.90;99.90
254;DHT22;590;48.772;8.846;2022-10-15T16:16:07;17.90;99.90
254;DHT22;590;48.772;8.846;2022-10-15T16:18:35;17.80;99.90
254;DHT22;590;48.772;8.846;2022-10-15T16:21:03;17.80;99.90
254;DHT22;590;48.772;8.846;2022-10-15T16:23:31;17.70;99.90
254;DHT22;590;48.772;8.846;2022-10-15T16:25:59;17.70;99.90
254;DHT22;590;48.772;8.846;2022-10-15T16:28:27;17.60;99.90
254;DHT22;590;48.772;8.846;2022-10-15T16:31:12;17.50;99.90
254;DHT22;590;48.772;8.846;2022-10-15T16:33:40;17.50;99.90
254;DHT22;590;48.772;8.846;2022-10-15T16:36:08;17.40;99.90
254;DHT22;590;48.772;8.846;2022-10-15T16:38:37;17.40;99.90
254;DHT22;590;48.772;8.846;2022-10-15T16:41:05;17.30;99.90
254;DHT22;590;48.772;8.846;2022-10-15T16:43:34;17.30;99.90
254;DHT22;590;48.772;8.846;2022-10-15T16:46:04;17.20;99.90
254;DHT22;590;48.772;8.846;2022-10-15T16:48:32;17.20;99.90
254;DHT22;590;48.772;8.846;2022-10-15T16:51:02;17.20;99.90
254;DHT22;590;48.772;8.846;2022-10-15T16:53:31;17.20;99.90
254;DHT22;590;48.772;8.846;2022-10-15T16:56:00;17.20;99.90
254;DHT22;590;48.772;8.846;2022-10-15T16:58:28;17.10;99.90
254;DHT22;590;48.772;8.846;2022-10-15T17:00:57;17.10;99.90
254;DHT22;590;48.772;8.846;2022-10-15T17:03:28;17.10;99.90
254;DHT22;590;48.772;8.846;2022-10-15T17:05:56;17.10;99.90
254;DHT22;590;48.772;8.846;2022-10-15T17:08:27;17.10;99.90
254;DHT22;590;48.772;8.846;2022-10-15T17:11:01;17.00;99.90
254;DHT22;590;48.772;8.846;2022-10-15T17:13:29;17.00;99.90
254;DHT22;590;48.772;8.846;2022-10-15T17:16:07;17.00;99.90
254;DHT22;590;48.772;8.846;2022-10-15T17:18:36;17.00;99.90
254;DHT22;590;48.772;8.846;2022-10-15T17:21:07;17.00;99.90